KMDH/MDH METAR and TAF weather

Enter ICAO airport designator
Station Type Date Time Source
KMDH METAR 2019/10/23 01:52 UTC NOAA

KMDH 230152Z 25005KT 10SM CLR 09/01 A3002 RMK AO2 SLP164 T00940006


Station Type Date Time Source
KMDH Decoded METAR 2019/10/23 01:52 UTC NOAA

SOUTHERN ILLINOIS AIRPORT, IL, United States (KMDH) 37-47N 089-15W 130M
Oct 22, 2019 - 09:52 PM EDT / 2019.10.23 0152 UTC
Wind: from the WSW (250 degrees) at 6 MPH (5 KT):0
Visibility: 10 mile(s):0
Sky conditions: clear
Temperature: 48.9 F (9.4 C)
Dew Point: 33.1 F (0.6 C)
Relative Humidity: 54%
Pressure (altimeter): 30.02 in. Hg (1016 hPa)
ob: KMDH 230152Z 25005KT 10SM CLR 09/01 A3002 RMK AO2 SLP164 T00940006
cycle: 2

Station Type Date Time Source
KMDH TAF UTC NOAA

Error!

Example: see airport list